sensor_id;sensor_type;location;lat;lon;timestamp;temperature;humidity
27747;DHT22;15138;51.012;4.692;2023-04-06T00:02:14;5.00;11.90
27747;DHT22;15138;51.012;4.692;2023-04-06T00:04:42;5.00;21.90
27747;DHT22;15138;51.012;4.692;2023-04-06T00:07:10;5.00;8.70
27747;DHT22;15138;51.012;4.692;2023-04-06T00:09:39;5.00;8.60
27747;DHT22;15138;51.012;4.692;2023-04-06T00:12:08;4.90;18.90
27747;DHT22;15138;51.012;4.692;2023-04-06T00:14:36;4.80;24.70
27747;DHT22;15138;51.012;4.692;2023-04-06T00:17:04;4.80;20.60
27747;DHT22;15138;51.012;4.692;2023-04-06T00:19:33;4.80;16.50
27747;DHT22;15138;51.012;4.692;2023-04-06T00:22:01;4.80;21.20
27747;DHT22;15138;51.012;4.692;2023-04-06T00:24:30;4.80;19.10
27747;DHT22;15138;51.012;4.692;2023-04-06T00:26:58;4.80;13.90
27747;DHT22;15138;51.012;4.692;2023-04-06T00:29:28;4.80;22.80
27747;DHT22;15138;51.012;4.692;2023-04-06T00:31:56;4.80;11.10
27747;DHT22;15138;51.012;4.692;2023-04-06T00:34:24;4.80;7.40
27747;DHT22;15138;51.012;4.692;2023-04-06T00:36:52;4.80;7.90
27747;DHT22;15138;51.012;4.692;2023-04-06T00:39:20;4.70;17.10
27747;DHT22;15138;51.012;4.692;2023-04-06T00:41:50;4.70;11.30
27747;DHT22;15138;51.012;4.692;2023-04-06T00:44:19;4.70;8.60
27747;DHT22;15138;51.012;4.692;2023-04-06T01:16:34;4.90;99.90
27747;DHT22;15138;51.012;4.692;2023-04-06T01:46:27;4.80;42.90
27747;DHT22;15138;51.012;4.692;2023-04-06T01:48:55;4.80;54.10
27747;DHT22;15138;51.012;4.692;2023-04-06T01:51:24;4.80;53.00
27747;DHT22;15138;51.012;4.692;2023-04-06T01:53:52;4.80;55.30
27747;DHT22;15138;51.012;4.692;2023-04-06T01:56:20;4.80;73.50
27747;DHT22;15138;51.012;4.692;2023-04-06T01:58:50;4.80;59.50
27747;DHT22;15138;51.012;4.692;2023-04-06T02:01:18;4.80;61.50
27747;DHT22;15138;51.012;4.692;2023-04-06T02:03:47;4.80;61.10
27747;DHT22;15138;51.012;4.692;2023-04-06T02:06:15;4.80;63.80
27747;DHT22;15138;51.012;4.692;2023-04-06T02:08:43;4.80;65.80
27747;DHT22;15138;51.012;4.692;2023-04-06T02:11:11;4.90;68.40
27747;DHT22;15138;51.012;4.692;2023-04-06T02:13:40;5.00;74.70
27747;DHT22;15138;51.012;4.692;2023-04-06T02:16:09;4.90;75.60
27747;DHT22;15138;51.012;4.692;2023-04-06T02:18:38;5.00;76.60
27747;DHT22;15138;51.012;4.692;2023-04-06T02:21:06;5.00;77.90
27747;DHT22;15138;51.012;4.692;2023-04-06T02:23:34;5.00;78.10
27747;DHT22;15138;51.012;4.692;2023-04-06T02:26:02;5.00;75.20
27747;DHT22;15138;51.012;4.692;2023-04-06T02:28:31;5.00;74.20
27747;DHT22;15138;51.012;4.692;2023-04-06T02:30:59;5.00;75.40
27747;DHT22;15138;51.012;4.692;2023-04-06T02:33:28;5.10;77.70
27747;DHT22;15138;51.012;4.692;2023-04-06T02:35:57;5.10;79.50
27747;DHT22;15138;51.012;4.692;2023-04-06T02:38:25;5.10;78.60
27747;DHT22;15138;51.012;4.692;2023-04-06T02:40:53;5.10;80.50
27747;DHT22;15138;51.012;4.692;2023-04-06T02:43:21;5.20;80.40
27747;DHT22;15138;51.012;4.692;2023-04-06T02:45:49;5.20;82.50
27747;DHT22;15138;51.012;4.692;2023-04-06T02:48:18;5.20;81.40
27747;DHT22;15138;51.012;4.692;2023-04-06T02:50:47;5.20;80.50
27747;DHT22;15138;51.012;4.692;2023-04-06T02:53:16;5.20;78.40
27747;DHT22;15138;51.012;4.692;2023-04-06T02:55:44;5.20;76.50
27747;DHT22;15138;51.012;4.692;2023-04-06T02:58:12;5.20;76.20
27747;DHT22;15138;51.012;4.692;2023-04-06T03:00:40;5.20;77.70
27747;DHT22;15138;51.012;4.692;2023-04-06T03:03:08;5.20;78.30
27747;DHT22;15138;51.012;4.692;2023-04-06T03:05:37;5.20;80.50
27747;DHT22;15138;51.012;4.692;2023-04-06T03:08:07;5.20;77.90
27747;DHT22;15138;51.012;4.692;2023-04-06T03:10:35;5.20;78.20
27747;DHT22;15138;51.012;4.692;2023-04-06T03:13:03;5.30;78.50
27747;DHT22;15138;51.012;4.692;2023-04-06T03:15:31;5.20;80.70
27747;DHT22;15138;51.012;4.692;2023-04-06T03:17:59;5.30;79.10
27747;DHT22;15138;51.012;4.692;2023-04-06T03:20:28;5.30;80.30
27747;DHT22;15138;51.012;4.692;2023-04-06T03:22:56;5.30;81.80
27747;DHT22;15138;51.012;4.692;2023-04-06T03:25:25;5.30;81.70
27747;DHT22;15138;51.012;4.692;2023-04-06T03:27:54;5.30;82.10
27747;DHT22;15138;51.012;4.692;2023-04-06T03:30:22;5.30;80.80
27747;DHT22;15138;51.012;4.692;2023-04-06T03:32:50;5.30;79.50
27747;DHT22;15138;51.012;4.692;2023-04-06T03:35:18;5.40;99.90
27747;DHT22;15138;51.012;4.692;2023-04-06T03:37:46;5.50;99.90
27747;DHT22;15138;51.012;4.692;2023-04-06T03:40:15;5.50;99.90
27747;DHT22;15138;51.012;4.692;2023-04-06T03:42:44;5.40;99.90
27747;DHT22;15138;51.012;4.692;2023-04-06T03:45:13;5.50;99.90
27747;DHT22;15138;51.012;4.692;2023-04-06T03:47:41;5.40;99.90
27747;DHT22;15138;51.012;4.692;2023-04-06T09:15:19;9.30;99.90
27747;DHT22;15138;51.012;4.692;2023-04-06T09:17:50;9.30;99.90
27747;DHT22;15138;51.012;4.692;2023-04-06T09:20:22;9.20;99.20
27747;DHT22;15138;51.012;4.692;2023-04-06T09:28:00;9.60;1.00
27747;DHT22;15138;51.012;4.692;2023-04-06T09:30:28;9.20;99.90
27747;DHT22;15138;51.012;4.692;2023-04-06T09:32:57;9.20;99.90
27747;DHT22;15138;51.012;4.692;2023-04-06T09:37:58;9.30;99.90
27747;DHT22;15138;51.012;4.692;2023-04-06T09:42:56;9.40;99.90
27747;DHT22;15138;51.012;4.692;2023-04-06T09:45:26;9.30;1.00
27747;DHT22;15138;51.012;4.692;2023-04-06T10:05:43;9.40;99.90
27747;DHT22;15138;51.012;4.692;2023-04-06T10:26:00;9.40;99.90
27747;DHT22;15138;51.012;4.692;2023-04-06T10:28:31;9.30;99.90
27747;DHT22;15138;51.012;4.692;2023-04-06T10:31:05;9.40;99.90
27747;DHT22;15138;51.012;4.692;2023-04-06T10:33:34;9.40;99.90
27747;DHT22;15138;51.012;4.692;2023-04-06T10:36:12;9.40;99.90
27747;DHT22;15138;51.012;4.692;2023-04-06T10:38:42;9.30;99.90
27747;DHT22;15138;51.012;4.692;2023-04-06T10:41:11;9.30;99.90
27747;DHT22;15138;51.012;4.692;2023-04-06T10:43:41;9.40;1.00
27747;DHT22;15138;51.012;4.692;2023-04-06T10:46:10;9.40;1.00
27747;DHT22;15138;51.012;4.692;2023-04-06T10:48:40;9.30;99.90
27747;DHT22;15138;51.012;4.692;2023-04-06T10:51:10;9.30;99.90
27747;DHT22;15138;51.012;4.692;2023-04-06T10:53:41;9.30;99.90
27747;DHT22;15138;51.012;4.692;2023-04-06T10:56:10;9.30;99.90
27747;DHT22;15138;51.012;4.692;2023-04-06T11:01:16;9.30;1.00
27747;DHT22;15138;51.012;4.692;2023-04-06T11:03:44;9.20;99.90
27747;DHT22;15138;51.012;4.692;2023-04-06T11:06:23;9.30;99.90
27747;DHT22;15138;51.012;4.692;2023-04-06T11:08:52;9.30;99.90
27747;DHT22;15138;51.012;4.692;2023-04-06T11:11:22;9.20;99.90
27747;DHT22;15138;51.012;4.692;2023-04-06T11:13:51;9.20;99.90
27747;DHT22;15138;51.012;4.692;2023-04-06T11:16:22;9.20;99.90
27747;DHT22;15138;51.012;4.692;2023-04-06T11:18:52;9.30;1.00
27747;DHT22;15138;51.012;4.692;2023-04-06T11:21:32;9.30;99.90
27747;DHT22;15138;51.012;4.692;2023-04-06T11:24:05;9.30;99.90
27747;DHT22;15138;51.012;4.692;2023-04-06T11:26:37;9.20;1.00
27747;DHT22;15138;51.012;4.692;2023-04-06T11:29:06;9.30;1.00
27747;DHT22;15138;51.012;4.692;2023-04-06T11:31:40;9.30;1.00
27747;DHT22;15138;51.012;4.692;2023-04-06T11:34:12;9.30;1.00
27747;DHT22;15138;51.012;4.692;2023-04-06T11:36:41;9.20;1.00
27747;DHT22;15138;51.012;4.692;2023-04-06T11:39:12;9.30;1.00
27747;DHT22;15138;51.012;4.692;2023-04-06T11:41:40;9.30;1.00
27747;DHT22;15138;51.012;4.692;2023-04-06T11:44:09;9.40;1.00
27747;DHT22;15138;51.012;4.692;2023-04-06T11:46:38;9.40;1.00
27747;DHT22;15138;51.012;4.692;2023-04-06T11:49:07;9.50;1.00
27747;DHT22;15138;51.012;4.692;2023-04-06T11:51:36;9.50;1.00
27747;DHT22;15138;51.012;4.692;2023-04-06T11:54:04;9.50;1.00
27747;DHT22;15138;51.012;4.692;2023-04-06T11:56:32;9.70;99.90
27747;DHT22;15138;51.012;4.692;2023-04-06T11:59:01;9.80;99.90
27747;DHT22;15138;51.012;4.692;2023-04-06T12:01:29;9.70;90.10
27747;DHT22;15138;51.012;4.692;2023-04-06T12:04:06;9.70;1.00
27747;DHT22;15138;51.012;4.692;2023-04-06T12:06:34;9.50;1.00
27747;DHT22;15138;51.012;4.692;2023-04-06T12:09:02;9.40;1.00
27747;DHT22;15138;51.012;4.692;2023-04-06T12:11:31;9.50;1.00
27747;DHT22;15138;51.012;4.692;2023-04-06T12:13:59;9.60;1.00
27747;DHT22;15138;51.012;4.692;2023-04-06T12:16:28;9.70;1.00
27747;DHT22;15138;51.012;4.692;2023-04-06T12:18:56;9.50;1.00
27747;DHT22;15138;51.012;4.692;2023-04-06T12:21:26;9.60;1.00
27747;DHT22;15138;51.012;4.692;2023-04-06T12:23:55;9.60;1.00
27747;DHT22;15138;51.012;4.692;2023-04-06T12:26:23;9.60;99.90
27747;DHT22;15138;51.012;4.692;2023-04-06T12:31:21;10.00;11.90
27747;DHT22;15138;51.012;4.692;2023-04-06T12:33:50;9.80;1.00
27747;DHT22;15138;51.012;4.692;2023-04-06T12:36:19;9.80;1.00
27747;DHT22;15138;51.012;4.692;2023-04-06T12:38:50;9.60;99.90
27747;DHT22;15138;51.012;4.692;2023-04-06T12:48:46;9.80;99.90
27747;DHT22;15138;51.012;4.692;2023-04-06T12:51:15;9.90;99.90
27747;DHT22;15138;51.012;4.692;2023-04-06T12:53:44;9.90;99.90
27747;DHT22;15138;51.012;4.692;2023-04-06T12:56:17;9.60;1.00
27747;DHT22;15138;51.012;4.692;2023-04-06T12:58:47;9.70;99.90
27747;DHT22;15138;51.012;4.692;2023-04-06T13:01:16;9.90;99.90
27747;DHT22;15138;51.012;4.692;2023-04-06T13:06:13;9.60;1.00
27747;DHT22;15138;51.012;4.692;2023-04-06T13:11:12;9.60;99.90
27747;DHT22;15138;51.012;4.692;2023-04-06T13:13:41;9.70;1.00
27747;DHT22;15138;51.012;4.692;2023-04-06T13:16:09;9.80;1.00
27747;DHT22;15138;51.012;4.692;2023-04-06T13:18:38;9.80;1.00
27747;DHT22;15138;51.012;4.692;2023-04-06T13:21:06;9.80;79.60
27747;DHT22;15138;51.012;4.692;2023-04-06T13:23:35;9.70;99.90
27747;DHT22;15138;51.012;4.692;2023-04-06T13:26:04;9.70;99.90
27747;DHT22;15138;51.012;4.692;2023-04-06T13:28:35;9.60;23.50
27747;DHT22;15138;51.012;4.692;2023-04-06T13:31:06;9.50;1.00
27747;DHT22;15138;51.012;4.692;2023-04-06T13:33:35;9.50;1.00
27747;DHT22;15138;51.012;4.692;2023-04-06T13:36:03;9.50;23.00
27747;DHT22;15138;51.012;4.692;2023-04-06T13:38:32;9.50;1.00
27747;DHT22;15138;51.012;4.692;2023-04-06T13:41:00;9.50;1.00
27747;DHT22;15138;51.012;4.692;2023-04-06T13:43:28;9.50;99.90
27747;DHT22;15138;51.012;4.692;2023-04-06T13:45:58;9.70;1.00
27747;DHT22;15138;51.012;4.692;2023-04-06T13:48:28;9.40;1.00
27747;DHT22;15138;51.012;4.692;2023-04-06T13:50:57;9.40;99.90
27747;DHT22;15138;51.012;4.692;2023-04-06T13:53:25;9.40;1.00
27747;DHT22;15138;51.012;4.692;2023-04-06T13:55:53;9.40;28.90
27747;DHT22;15138;51.012;4.692;2023-04-06T13:58:22;9.40;1.00
27747;DHT22;15138;51.012;4.692;2023-04-06T14:00:50;9.40;99.90
27747;DHT22;15138;51.012;4.692;2023-04-06T14:03:22;9.40;21.50
27747;DHT22;15138;51.012;4.692;2023-04-06T14:05:51;9.40;99.90
27747;DHT22;15138;51.012;4.692;2023-04-06T14:08:19;9.40;1.00
27747;DHT22;15138;51.012;4.692;2023-04-06T14:10:47;9.60;1.00
27747;DHT22;15138;51.012;4.692;2023-04-06T14:13:15;9.50;99.90
27747;DHT22;15138;51.012;4.692;2023-04-06T14:15:44;9.40;1.00
27747;DHT22;15138;51.012;4.692;2023-04-06T14:18:12;9.40;1.00
27747;DHT22;15138;51.012;4.692;2023-04-06T14:20:41;9.40;1.00
27747;DHT22;15138;51.012;4.692;2023-04-06T14:23:10;9.40;1.00
27747;DHT22;15138;51.012;4.692;2023-04-06T14:25:38;9.40;99.90
27747;DHT22;15138;51.012;4.692;2023-04-06T14:28:07;9.40;1.00
27747;DHT22;15138;51.012;4.692;2023-04-06T14:30:35;9.30;1.00
27747;DHT22;15138;51.012;4.692;2023-04-06T14:33:03;9.30;1.00
27747;DHT22;15138;51.012;4.692;2023-04-06T14:35:32;9.30;99.90
27747;DHT22;15138;51.012;4.692;2023-04-06T14:38:01;9.40;1.00
27747;DHT22;15138;51.012;4.692;2023-04-06T14:40:30;9.40;99.90
27747;DHT22;15138;51.012;4.692;2023-04-06T14:42:58;9.50;1.00
27747;DHT22;15138;51.012;4.692;2023-04-06T14:45:26;9.50;1.00
27747;DHT22;15138;51.012;4.692;2023-04-06T14:47:54;9.50;99.90
27747;DHT22;15138;51.012;4.692;2023-04-06T14:50:22;9.50;1.00
27747;DHT22;15138;51.012;4.692;2023-04-06T14:52:51;9.50;99.90
27747;DHT22;15138;51.012;4.692;2023-04-06T14:55:20;9.50;1.00
27747;DHT22;15138;51.012;4.692;2023-04-06T14:57:48;9.60;99.90
27747;DHT22;15138;51.012;4.692;2023-04-06T15:00:17;9.60;99.90
27747;DHT22;15138;51.012;4.692;2023-04-06T15:02:45;9.60;1.00
27747;DHT22;15138;51.012;4.692;2023-04-06T15:05:14;9.50;99.90
27747;DHT22;15138;51.012;4.692;2023-04-06T15:07:42;9.60;1.00
27747;DHT22;15138;51.012;4.692;2023-04-06T15:10:10;9.50;96.80
27747;DHT22;15138;51.012;4.692;2023-04-06T15:12:40;9.70;99.90
27747;DHT22;15138;51.012;4.692;2023-04-06T15:15:08;9.70;99.90
27747;DHT22;15138;51.012;4.692;2023-04-06T15:17:37;9.70;1.00
27747;DHT22;15138;51.012;4.692;2023-04-06T15:22:34;9.70;1.00
27747;DHT22;15138;51.012;4.692;2023-04-06T15:25:03;9.70;1.00
27747;DHT22;15138;51.012;4.692;2023-04-06T15:27:32;9.80;99.90
27747;DHT22;15138;51.012;4.692;2023-04-06T15:30:02;9.80;99.90
27747;DHT22;15138;51.012;4.692;2023-04-06T15:32:30;9.90;1.00
27747;DHT22;15138;51.012;4.692;2023-04-06T15:34:58;10.10;11.60
27747;DHT22;15138;51.012;4.692;2023-04-06T15:37:27;10.40;1.00
27747;DHT22;15138;51.012;4.692;2023-04-06T15:39:55;10.40;99.90
27747;DHT22;15138;51.012;4.692;2023-04-06T15:42:26;10.30;99.90
27747;DHT22;15138;51.012;4.692;2023-04-06T15:44:55;10.50;99.90
27747;DHT22;15138;51.012;4.692;2023-04-06T15:47:25;10.40;99.90
27747;DHT22;15138;51.012;4.692;2023-04-06T15:49:53;10.30;99.90
27747;DHT22;15138;51.012;4.692;2023-04-06T15:54:49;10.40;4.60
27747;DHT22;15138;51.012;4.692;2023-04-06T15:57:18;10.50;99.90
27747;DHT22;15138;51.012;4.692;2023-04-06T15:59:46;10.40;99.90
27747;DHT22;15138;51.012;4.692;2023-04-06T16:02:14;10.30;1.00
27747;DHT22;15138;51.012;4.692;2023-04-06T16:12:10;10.50;99.90
27747;DHT22;15138;51.012;4.692;2023-04-06T16:14:39;10.50;99.90
27747;DHT22;15138;51.012;4.692;2023-04-06T16:19:35;10.70;99.90
27747;DHT22;15138;51.012;4.692;2023-04-06T16:22:05;10.60;1.00
27747;DHT22;15138;51.012;4.692;2023-04-06T16:24:33;10.70;99.90
27747;DHT22;15138;51.012;4.692;2023-04-06T16:27:02;10.80;98.80
27747;DHT22;15138;51.012;4.692;2023-04-06T16:29:33;10.70;99.90
27747;DHT22;15138;51.012;4.692;2023-04-06T16:32:01;10.70;1.00
27747;DHT22;15138;51.012;4.692;2023-04-06T16:34:30;10.80;99.90
27747;DHT22;15138;51.012;4.692;2023-04-06T16:36:59;10.80;99.90
27747;DHT22;15138;51.012;4.692;2023-04-06T16:39:29;11.00;1.00
27747;DHT22;15138;51.012;4.692;2023-04-06T16:44:28;11.00;1.00
27747;DHT22;15138;51.012;4.692;2023-04-06T16:46:56;10.80;99.90
27747;DHT22;15138;51.012;4.692;2023-04-06T16:49:26;10.80;99.30
27747;DHT22;15138;51.012;4.692;2023-04-06T16:51:54;10.70;99.90
27747;DHT22;15138;51.012;4.692;2023-04-06T16:54:22;10.80;99.90
27747;DHT22;15138;51.012;4.692;2023-04-06T16:56:51;10.60;99.90
27747;DHT22;15138;51.012;4.692;2023-04-06T16:59:19;10.60;1.00
27747;DHT22;15138;51.012;4.692;2023-04-06T17:04:17;10.60;99.90
27747;DHT22;15138;51.012;4.692;2023-04-06T17:06:45;10.60;99.90
27747;DHT22;15138;51.012;4.692;2023-04-06T17:09:13;10.50;99.90
27747;DHT22;15138;51.012;4.692;2023-04-06T17:11:42;10.60;32.50
27747;DHT22;15138;51.012;4.692;2023-04-06T17:14:14;10.60;1.00
27747;DHT22;15138;51.012;4.692;2023-04-06T17:16:42;10.50;35.90
27747;DHT22;15138;51.012;4.692;2023-04-06T17:19:10;10.50;99.90
27747;DHT22;15138;51.012;4.692;2023-04-06T17:21:39;10.50;1.00
27747;DHT22;15138;51.012;4.692;2023-04-06T17:24:07;10.50;1.00
27747;DHT22;15138;51.012;4.692;2023-04-06T17:26:36;10.50;58.40
27747;DHT22;15138;51.012;4.692;2023-04-06T17:29:04;10.50;12.30
27747;DHT22;15138;51.012;4.692;2023-04-06T17:31:33;10.40;99.90
27747;DHT22;15138;51.012;4.692;2023-04-06T17:34:02;10.40;99.90
27747;DHT22;15138;51.012;4.692;2023-04-06T17:38:58;10.50;1.00
27747;DHT22;15138;51.012;4.692;2023-04-06T17:43:58;10.50;99.90
27747;DHT22;15138;51.012;4.692;2023-04-06T17:46:26;10.50;99.90
27747;DHT22;15138;51.012;4.692;2023-04-06T17:48:56;10.60;1.00
27747;DHT22;15138;51.012;4.692;2023-04-06T17:51:24;10.50;99.90
27747;DHT22;15138;51.012;4.692;2023-04-06T17:53:53;10.50;1.00
27747;DHT22;15138;51.012;4.692;2023-04-06T17:56:21;10.50;1.00
27747;DHT22;15138;51.012;4.692;2023-04-06T18:01:18;10.40;99.90
27747;DHT22;15138;51.012;4.692;2023-04-06T18:03:47;10.30;1.00
27747;DHT22;15138;51.012;4.692;2023-04-06T18:06:18;10.30;1.00
27747;DHT22;15138;51.012;4.692;2023-04-06T18:08:47;10.30;1.00
27747;DHT22;15138;51.012;4.692;2023-04-06T18:11:16;10.30;1.00
27747;DHT22;15138;51.012;4.692;2023-04-06T18:16:13;10.60;99.90
27747;DHT22;15138;51.012;4.692;2023-04-06T18:18:43;10.30;99.90
27747;DHT22;15138;51.012;4.692;2023-04-06T18:21:11;10.40;1.00
27747;DHT22;15138;51.012;4.692;2023-04-06T18:23:40;10.50;1.00
27747;DHT22;15138;51.012;4.692;2023-04-06T18:28:43;10.40;99.90
27747;DHT22;15138;51.012;4.692;2023-04-06T18:31:11;10.50;99.90
27747;DHT22;15138;51.012;4.692;2023-04-06T18:36:08;10.40;53.50
27747;DHT22;15138;51.012;4.692;2023-04-06T18:41:07;8.50;24.80
27747;DHT22;15138;51.012;4.692;2023-04-06T18:46:09;10.60;99.90
27747;DHT22;15138;51.012;4.692;2023-04-06T18:48:38;10.50;99.90
27747;DHT22;15138;51.012;4.692;2023-04-06T18:53:36;10.70;99.90
27747;DHT22;15138;51.012;4.692;2023-04-06T18:58:42;10.40;99.90
27747;DHT22;15138;51.012;4.692;2023-04-06T19:06:16;9.90;64.00
27747;DHT22;15138;51.012;4.692;2023-04-06T19:11:14;10.20;99.90
27747;DHT22;15138;51.012;4.692;2023-04-06T19:13:42;10.60;99.90
27747;DHT22;15138;51.012;4.692;2023-04-06T19:16:16;10.50;99.90
27747;DHT22;15138;51.012;4.692;2023-04-06T19:18:45;10.20;1.00
27747;DHT22;15138;51.012;4.692;2023-04-06T19:26:13;10.40;99.90
27747;DHT22;15138;51.012;4.692;2023-04-06T19:28:42;10.10;99.90
27747;DHT22;15138;51.012;4.692;2023-04-06T19:31:12;10.20;99.90
27747;DHT22;15138;51.012;4.692;2023-04-06T19:33:42;10.30;99.90
27747;DHT22;15138;51.012;4.692;2023-04-06T19:36:10;10.30;99.90
27747;DHT22;15138;51.012;4.692;2023-04-06T19:38:39;10.40;99.90
27747;DHT22;15138;51.012;4.692;2023-04-06T19:41:07;10.20;1.00
27747;DHT22;15138;51.012;4.692;2023-04-06T19:43:37;10.20;1.00
27747;DHT22;15138;51.012;4.692;2023-04-06T19:46:05;10.20;99.90
27747;DHT22;15138;51.012;4.692;2023-04-06T19:48:35;10.30;99.90
27747;DHT22;15138;51.012;4.692;2023-04-06T19:51:03;10.30;23.60
27747;DHT22;15138;51.012;4.692;2023-04-06T19:53:31;10.30;99.90
27747;DHT22;15138;51.012;4.692;2023-04-06T19:55:59;10.30;20.60
27747;DHT22;15138;51.012;4.692;2023-04-06T19:58:28;10.30;1.00
27747;DHT22;15138;51.012;4.692;2023-04-06T20:00:57;10.30;99.90
27747;DHT22;15138;51.012;4.692;2023-04-06T20:03:26;10.30;99.90
27747;DHT22;15138;51.012;4.692;2023-04-06T20:05:54;10.30;1.00
27747;DHT22;15138;51.012;4.692;2023-04-06T20:08:22;10.20;1.00
27747;DHT22;15138;51.012;4.692;2023-04-06T20:10:51;10.30;99.90
27747;DHT22;15138;51.012;4.692;2023-04-06T20:13:19;10.30;1.00
27747;DHT22;15138;51.012;4.692;2023-04-06T20:15:48;10.30;1.00
27747;DHT22;15138;51.012;4.692;2023-04-06T20:18:17;10.30;1.00
27747;DHT22;15138;51.012;4.692;2023-04-06T20:20:45;10.30;1.00
27747;DHT22;15138;51.012;4.692;2023-04-06T20:23:15;10.30;1.00
27747;DHT22;15138;51.012;4.692;2023-04-06T20:25:43;10.30;99.90
27747;DHT22;15138;51.012;4.692;2023-04-06T20:28:12;10.30;99.90
27747;DHT22;15138;51.012;4.692;2023-04-06T20:30:40;10.30;99.90
27747;DHT22;15138;51.012;4.692;2023-04-06T20:33:08;10.30;99.90
27747;DHT22;15138;51.012;4.692;2023-04-06T20:35:38;10.30;1.00
27747;DHT22;15138;51.012;4.692;2023-04-06T20:38:06;10.30;99.90
27747;DHT22;15138;51.012;4.692;2023-04-06T20:40:34;10.30;1.00
27747;DHT22;15138;51.012;4.692;2023-04-06T20:43:02;10.30;1.00
27747;DHT22;15138;51.012;4.692;2023-04-06T20:45:34;10.30;99.90
27747;DHT22;15138;51.012;4.692;2023-04-06T20:48:04;10.30;29.40
27747;DHT22;15138;51.012;4.692;2023-04-06T20:50:35;10.40;1.00
27747;DHT22;15138;51.012;4.692;2023-04-06T20:53:05;10.30;99.90
27747;DHT22;15138;51.012;4.692;2023-04-06T20:55:33;10.30;1.00
27747;DHT22;15138;51.012;4.692;2023-04-06T20:58:02;10.30;99.90
27747;DHT22;15138;51.012;4.692;2023-04-06T21:00:30;10.30;99.90
27747;DHT22;15138;51.012;4.692;2023-04-06T21:02:58;10.40;1.00
27747;DHT22;15138;51.012;4.692;2023-04-06T21:05:27;10.40;99.90
27747;DHT22;15138;51.012;4.692;2023-04-06T21:07:55;10.40;99.90
27747;DHT22;15138;51.012;4.692;2023-04-06T21:10:25;10.40;99.90
27747;DHT22;15138;51.012;4.692;2023-04-06T21:12:53;10.30;99.90
27747;DHT22;15138;51.012;4.692;2023-04-06T21:15:21;10.30;99.90
27747;DHT22;15138;51.012;4.692;2023-04-06T21:17:49;10.20;1.00
27747;DHT22;15138;51.012;4.692;2023-04-06T21:20:17;10.30;1.00
27747;DHT22;15138;51.012;4.692;2023-04-06T21:22:45;10.30;1.00
27747;DHT22;15138;51.012;4.692;2023-04-06T21:25:14;10.30;1.00
27747;DHT22;15138;51.012;4.692;2023-04-06T21:27:43;10.30;1.00
27747;DHT22;15138;51.012;4.692;2023-04-06T21:30:12;10.30;1.00
27747;DHT22;15138;51.012;4.692;2023-04-06T21:32:40;10.30;99.90
27747;DHT22;15138;51.012;4.692;2023-04-06T21:35:09;10.30;1.00
27747;DHT22;15138;51.012;4.692;2023-04-06T21:37:37;10.30;1.00
27747;DHT22;15138;51.012;4.692;2023-04-06T21:40:07;10.30;1.00
27747;DHT22;15138;51.012;4.692;2023-04-06T21:42:35;10.30;99.90
27747;DHT22;15138;51.012;4.692;2023-04-06T21:45:05;10.20;1.00
27747;DHT22;15138;51.012;4.692;2023-04-06T21:47:34;10.20;99.90
27747;DHT22;15138;51.012;4.692;2023-04-06T21:50:03;10.30;75.50
27747;DHT22;15138;51.012;4.692;2023-04-06T21:52:31;10.20;99.90
27747;DHT22;15138;51.012;4.692;2023-04-06T21:54:59;10.30;1.00
27747;DHT22;15138;51.012;4.692;2023-04-06T21:57:27;10.30;72.50
27747;DHT22;15138;51.012;4.692;2023-04-06T21:59:55;10.20;99.90
27747;DHT22;15138;51.012;4.692;2023-04-06T22:02:25;10.20;99.90
27747;DHT22;15138;51.012;4.692;2023-04-06T22:04:55;10.20;99.90
27747;DHT22;15138;51.012;4.692;2023-04-06T22:07:23;10.10;99.90
27747;DHT22;15138;51.012;4.692;2023-04-06T22:09:51;10.20;99.90
27747;DHT22;15138;51.012;4.692;2023-04-06T22:12:19;10.10;99.90
27747;DHT22;15138;51.012;4.692;2023-04-06T22:14:47;10.10;99.90
27747;DHT22;15138;51.012;4.692;2023-04-06T22:17:15;10.10;99.90
27747;DHT22;15138;51.012;4.692;2023-04-06T22:19:45;10.10;99.90
27747;DHT22;15138;51.012;4.692;2023-04-06T22:22:13;10.10;1.00
27747;DHT22;15138;51.012;4.692;2023-04-06T22:24:42;10.00;99.90
27747;DHT22;15138;51.012;4.692;2023-04-06T22:27:10;10.00;99.90
27747;DHT22;15138;51.012;4.692;2023-04-06T22:29:38;10.10;99.90
27747;DHT22;15138;51.012;4.692;2023-04-06T22:32:06;10.10;1.00
27747;DHT22;15138;51.012;4.692;2023-04-06T22:34:34;10.00;99.90
27747;DHT22;15138;51.012;4.692;2023-04-06T22:37:04;10.00;60.60
27747;DHT22;15138;51.012;4.692;2023-04-06T22:39:32;10.00;1.00
27747;DHT22;15138;51.012;4.692;2023-04-06T22:42:00;10.00;1.00
27747;DHT22;15138;51.012;4.692;2023-04-06T22:44:28;10.00;99.90
27747;DHT22;15138;51.012;4.692;2023-04-06T22:46:56;10.00;99.90
27747;DHT22;15138;51.012;4.692;2023-04-06T22:49:25;10.00;1.00
27747;DHT22;15138;51.012;4.692;2023-04-06T22:51:53;10.00;99.90
27747;DHT22;15138;51.012;4.692;2023-04-06T22:54:22;10.00;27.70
27747;DHT22;15138;51.012;4.692;2023-04-06T22:56:50;10.00;1.00
27747;DHT22;15138;51.012;4.692;2023-04-06T22:59:18;9.90;1.00
27747;DHT22;15138;51.012;4.692;2023-04-06T23:01:46;9.90;99.90
27747;DHT22;15138;51.012;4.692;2023-04-06T23:04:15;9.90;21.80
27747;DHT22;15138;51.012;4.692;2023-04-06T23:06:43;9.90;99.90
27747;DHT22;15138;51.012;4.692;2023-04-06T23:09:12;9.90;1.00
27747;DHT22;15138;51.012;4.692;2023-04-06T23:11:41;9.90;1.00
27747;DHT22;15138;51.012;4.692;2023-04-06T23:14:09;9.90;8.50
27747;DHT22;15138;51.012;4.692;2023-04-06T23:16:38;9.90;1.00
27747;DHT22;15138;51.012;4.692;2023-04-06T23:19:06;9.90;1.00
27747;DHT22;15138;51.012;4.692;2023-04-06T23:21:34;9.90;24.50
27747;DHT22;15138;51.012;4.692;2023-04-06T23:24:02;9.80;99.90
27747;DHT22;15138;51.012;4.692;2023-04-06T23:26:30;9.80;99.90
27747;DHT22;15138;51.012;4.692;2023-04-06T23:29:00;9.80;99.90
27747;DHT22;15138;51.012;4.692;2023-04-06T23:31:28;9.80;99.90
27747;DHT22;15138;51.012;4.692;2023-04-06T23:33:56;9.80;99.90
27747;DHT22;15138;51.012;4.692;2023-04-06T23:36:24;9.80;99.90
27747;DHT22;15138;51.012;4.692;2023-04-06T23:38:53;9.80;1.00
27747;DHT22;15138;51.012;4.692;2023-04-06T23:41:22;9.70;1.00
27747;DHT22;15138;51.012;4.692;2023-04-06T23:43:50;9.70;99.90
27747;DHT22;15138;51.012;4.692;2023-04-06T23:46:19;9.70;99.90
27747;DHT22;15138;51.012;4.692;2023-04-06T23:48:48;9.60;99.90
27747;DHT22;15138;51.012;4.692;2023-04-06T23:51:16;9.60;99.90
27747;DHT22;15138;51.012;4.692;2023-04-06T23:53:44;9.60;99.90
27747;DHT22;15138;51.012;4.692;2023-04-06T23:56:12;9.50;99.90
27747;DHT22;15138;51.012;4.692;2023-04-06T23:58:40;9.50;99.90
